createdAt,value
2019-05-25T00:00:50.754Z,5.40
2019-05-25T00:04:54.875Z,3.55
2019-05-25T00:08:59.007Z,4.28
2019-05-25T00:13:03.468Z,3.17
2019-05-25T00:17:07.587Z,2.50
2019-05-25T00:21:14.048Z,2.43
2019-05-25T00:25:17.563Z,2.55
2019-05-25T00:29:21.742Z,3.63
2019-05-25T00:33:27.122Z,3.52
2019-05-25T00:37:31.188Z,3.80
2019-05-25T00:41:35.536Z,2.70
2019-05-25T00:45:39.560Z,5.17
2019-05-25T00:49:43.842Z,2.77
2019-05-25T00:53:48.014Z,3.70
2019-05-25T00:57:52.115Z,2.58
2019-05-25T01:01:56.259Z,4.33
2019-05-25T01:06:00.343Z,2.17
2019-05-25T01:10:05.034Z,3.00
2019-05-25T01:14:09.378Z,4.07
2019-05-25T01:18:13.408Z,3.87
2019-05-25T01:22:17.585Z,2.40
2019-05-25T01:26:22.515Z,1.97
2019-05-25T01:30:26.631Z,2.12
2019-05-25T01:34:30.732Z,2.37
2019-05-25T01:38:34.859Z,2.50
2019-05-25T01:42:39.027Z,4.13
2019-05-25T01:46:43.009Z,1.87
2019-05-25T01:50:46.923Z,2.53
2019-05-25T01:54:59.550Z,3.60
2019-05-25T01:58:56.725Z,3.33
2019-05-25T02:03:00.784Z,2.53
2019-05-25T02:07:04.946Z,2.63
2019-05-25T02:11:09.278Z,2.20
2019-05-25T02:15:13.654Z,2.72
2019-05-25T02:19:17.687Z,1.80
2019-05-25T02:23:21.898Z,3.30
2019-05-25T02:27:25.959Z,5.50
2019-05-25T02:31:30.134Z,3.05
2019-05-25T02:35:34.238Z,3.23
2019-05-25T02:39:38.299Z,3.90
2019-05-25T02:43:42.666Z,3.35
2019-05-25T02:47:46.798Z,3.23
2019-05-25T02:51:50.879Z,3.60
2019-05-25T02:55:54.998Z,4.58
2019-05-25T02:59:58.870Z,2.67
2019-05-25T03:04:03.430Z,3.30
2019-05-25T03:08:07.671Z,5.63
2019-05-25T03:12:11.857Z,2.67
2019-05-25T03:16:15.900Z,3.63
2019-05-25T03:20:19.968Z,3.20
2019-05-25T03:24:24.083Z,2.73
2019-05-25T03:28:28.118Z,5.77
2019-05-25T03:32:32.131Z,6.67
2019-05-25T03:36:36.331Z,7.42
2019-05-25T03:40:40.395Z,9.73
2019-05-25T03:44:44.427Z,5.33
2019-05-25T03:48:48.394Z,6.17
2019-05-25T03:52:52.542Z,3.77
2019-05-25T03:56:57.794Z,5.27
2019-05-25T04:01:01.724Z,3.57
2019-05-25T04:05:06.109Z,5.10
2019-05-25T04:09:10.193Z,5.10
2019-05-25T04:13:14.309Z,3.90
2019-05-25T04:17:18.329Z,4.83
2019-05-25T04:21:23.360Z,5.13
2019-05-25T04:25:27.414Z,4.80
2019-05-25T04:29:31.479Z,3.53
2019-05-25T04:33:35.436Z,3.57
2019-05-25T04:37:39.582Z,5.73
2019-05-25T04:41:43.663Z,4.60
2019-05-25T04:45:47.823Z,3.10
2019-05-25T04:49:51.863Z,4.10
2019-05-25T04:53:55.933Z,7.08
2019-05-25T04:57:59.980Z,3.53
2019-05-25T05:02:04.320Z,3.67
2019-05-25T05:06:08.512Z,3.35
2019-05-25T05:10:12.759Z,3.17
2019-05-25T05:14:16.873Z,3.08
2019-05-25T05:18:20.827Z,3.37
2019-05-25T05:22:24.885Z,4.85
2019-05-25T05:26:29.006Z,3.73
2019-05-25T05:30:33.671Z,6.78
2019-05-25T05:34:37.898Z,3.33
2019-05-25T05:38:42.148Z,4.05
2019-05-25T05:42:47.897Z,4.65
2019-05-25T05:46:53.140Z,4.92
2019-05-25T05:50:59.680Z,3.42
2019-05-25T05:55:04.527Z,3.25
2019-05-25T05:59:08.692Z,3.33
2019-05-25T06:03:12.750Z,4.05
2019-05-25T06:07:16.889Z,4.35
2019-05-25T06:11:21.099Z,4.35
2019-05-25T06:15:25.251Z,5.75
2019-05-25T06:19:29.361Z,5.90
2019-05-25T06:23:33.415Z,4.12
2019-05-25T06:27:38.620Z,3.83
2019-05-25T06:31:42.840Z,4.50
2019-05-25T06:35:46.990Z,5.95
2019-05-25T06:39:51.262Z,4.45
2019-05-25T06:43:55.479Z,5.42
2019-05-25T06:47:59.630Z,6.50
2019-05-25T06:52:03.792Z,6.35
2019-05-25T06:56:08.023Z,5.85
2019-05-25T07:00:12.572Z,7.45
2019-05-25T07:04:16.715Z,7.62
2019-05-25T07:08:20.873Z,6.53
2019-05-25T07:12:24.996Z,6.05
2019-05-25T07:16:29.219Z,5.70
2019-05-25T07:20:33.398Z,5.67
2019-05-25T07:24:37.531Z,7.05
2019-05-25T07:28:41.702Z,5.87
2019-05-25T07:32:45.877Z,4.92
2019-05-25T07:36:50.072Z,6.55
2019-05-25T07:40:54.308Z,6.03
2019-05-25T07:44:59.376Z,5.80
2019-05-25T07:49:03.627Z,4.55
2019-05-25T07:53:07.773Z,5.10
2019-05-25T07:57:11.968Z,4.92
2019-05-25T08:01:16.092Z,5.03
2019-05-25T08:05:20.181Z,5.72
2019-05-25T08:09:24.828Z,5.28
2019-05-25T08:13:29.053Z,5.05
2019-05-25T08:17:33.167Z,8.68
2019-05-25T08:21:37.359Z,6.20
2019-05-25T08:25:41.524Z,5.67
2019-05-25T08:29:45.575Z,4.00
2019-05-25T08:33:50.006Z,5.30
2019-05-25T08:37:54.156Z,4.53
2019-05-25T08:41:58.487Z,7.97
2019-05-25T08:46:02.730Z,6.15
2019-05-25T08:50:07.115Z,4.05
2019-05-25T08:54:11.235Z,3.67
2019-05-25T08:58:15.333Z,4.08
2019-05-25T09:02:19.518Z,4.95
2019-05-25T09:06:23.636Z,4.47
2019-05-25T09:10:27.834Z,3.17
2019-05-25T09:14:32.052Z,4.30
2019-05-25T09:18:36.174Z,4.50
2019-05-25T09:22:40.319Z,2.22
2019-05-25T09:26:44.402Z,2.30
2019-05-25T09:30:48.450Z,3.58
2019-05-25T09:34:52.489Z,1.62
2019-05-25T09:38:56.592Z,1.67
2019-05-25T09:43:00.907Z,2.33
2019-05-25T09:47:05.034Z,2.22
2019-05-25T09:51:15.508Z,4.33
2019-05-25T09:55:16.047Z,2.15
2019-05-25T09:59:20.730Z,3.15
2019-05-25T10:03:24.966Z,2.75
2019-05-25T10:07:29.118Z,3.00
2019-05-25T10:11:33.231Z,1.77
2019-05-25T10:15:37.351Z,3.52
2019-05-25T10:19:41.606Z,3.75
2019-05-25T10:23:46.344Z,3.85
2019-05-25T10:27:50.478Z,2.25
2019-05-25T10:31:54.619Z,1.52
2019-05-25T10:35:58.956Z,2.15
2019-05-25T10:40:02.991Z,1.85
2019-05-25T10:44:07.136Z,1.90
2019-05-25T10:48:11.202Z,2.42
2019-05-25T10:52:15.355Z,2.37
2019-05-25T10:56:19.492Z,1.80
2019-05-25T11:00:23.800Z,2.15
2019-05-25T11:04:27.866Z,1.82
2019-05-25T11:08:32.047Z,3.62
2019-05-25T11:12:36.404Z,2.08
2019-05-25T11:16:40.609Z,2.45
2019-05-25T11:20:44.684Z,2.75
2019-05-25T11:24:48.890Z,2.55
2019-05-25T11:28:53.111Z,2.10
2019-05-25T11:32:57.323Z,1.00
2019-05-25T11:37:01.473Z,3.62
2019-05-25T11:41:05.545Z,2.83
2019-05-25T11:45:09.798Z,1.92
2019-05-25T11:49:22.476Z,3.87
2019-05-25T11:53:20.046Z,4.20
2019-05-25T11:57:24.267Z,5.22
2019-05-25T12:01:28.382Z,3.55
2019-05-25T12:05:32.526Z,4.80
2019-05-25T12:09:36.666Z,4.15
2019-05-25T12:13:41.876Z,7.53
2019-05-25T12:17:46.015Z,4.83
2019-05-25T12:21:51.492Z,5.25
2019-05-25T12:25:55.619Z,5.55
2019-05-25T12:30:00.268Z,6.37
2019-05-25T12:34:04.457Z,5.42
2019-05-25T12:38:08.670Z,6.25
2019-05-25T12:42:13.044Z,4.97
2019-05-25T12:46:17.253Z,4.08
2019-05-25T12:50:23.130Z,7.58
2019-05-25T12:54:28.374Z,6.30
2019-05-25T12:58:32.527Z,6.90
2019-05-25T13:02:36.966Z,5.87
2019-05-25T13:06:41.093Z,5.60
2019-05-25T13:10:45.234Z,5.37
2019-05-25T13:14:50.306Z,7.03
2019-05-25T13:18:54.412Z,3.37
2019-05-25T13:22:59.095Z,6.92
2019-05-25T13:27:03.237Z,6.90
2019-05-25T13:31:11.765Z,8.15
2019-05-25T13:35:13.314Z,5.55
2019-05-25T13:39:17.654Z,5.90
2019-05-25T13:43:21.806Z,7.65
2019-05-25T13:47:25.935Z,8.90
2019-05-25T13:51:30.078Z,5.92
2019-05-25T13:55:34.285Z,4.90
2019-05-25T13:59:38.438Z,8.20
2019-05-25T14:03:42.631Z,7.75
2019-05-25T14:07:46.917Z,6.92
2019-05-25T14:11:51.204Z,8.40
2019-05-25T14:16:06.777Z,5.47
2019-05-25T14:20:01.612Z,8.10
2019-05-25T14:24:05.775Z,5.70
2019-05-25T14:28:11.035Z,4.58
2019-05-25T14:32:15.187Z,7.50
2019-05-25T14:36:19.352Z,4.72
2019-05-25T14:40:23.495Z,8.18
2019-05-25T14:44:30.036Z,4.65
2019-05-25T14:48:34.268Z,5.60
2019-05-25T14:52:38.465Z,4.80
2019-05-25T14:56:42.582Z,7.40
2019-05-25T15:00:46.806Z,7.08
2019-05-25T15:04:51.039Z,5.90
2019-05-25T15:08:55.191Z,6.83
2019-05-25T15:12:59.280Z,8.00
2019-05-25T15:17:03.451Z,5.75
2019-05-25T15:21:07.827Z,5.80
2019-05-25T15:25:12.402Z,4.55
2019-05-25T15:29:16.517Z,4.37
2019-05-25T15:33:20.671Z,5.35
2019-05-25T15:37:24.937Z,6.80
2019-05-25T15:41:30.582Z,5.58
2019-05-25T15:45:34.734Z,7.05
2019-05-25T15:49:38.915Z,3.92
2019-05-25T15:53:43.129Z,4.92
2019-05-25T15:57:47.324Z,7.78
2019-05-25T16:01:51.515Z,7.58
2019-05-25T16:05:55.650Z,5.67
2019-05-25T16:09:59.970Z,5.87
2019-05-25T16:14:06.920Z,5.20
2019-05-25T16:18:09.888Z,4.33
2019-05-25T16:22:14.023Z,5.40
2019-05-25T16:26:20.709Z,5.80
2019-05-25T16:30:24.997Z,6.28
2019-05-25T16:34:29.117Z,4.83
2019-05-25T16:38:33.324Z,5.08
2019-05-25T16:42:37.657Z,4.53
2019-05-25T16:46:42.830Z,10.98
2019-05-25T16:50:47.065Z,8.15
2019-05-25T16:54:51.161Z,12.03
2019-05-25T16:58:55.236Z,6.15
2019-05-25T17:02:59.381Z,8.15
2019-05-25T17:07:03.547Z,6.45
2019-05-25T17:11:07.645Z,5.17
2019-05-25T17:15:12.751Z,6.33
2019-05-25T17:19:17.067Z,5.65
2019-05-25T17:23:21.197Z,5.83
2019-05-25T17:27:25.343Z,5.50
2019-05-25T17:31:29.704Z,5.35
2019-05-25T17:35:33.821Z,8.00
2019-05-25T17:39:37.945Z,6.00
2019-05-25T17:43:42.185Z,5.12
2019-05-25T17:47:46.447Z,6.50
2019-05-25T17:51:51.694Z,7.42
2019-05-25T17:55:57.065Z,8.98
2019-05-25T18:00:01.154Z,9.78
2019-05-25T18:04:07.675Z,10.40
2019-05-25T18:08:11.805Z,8.20
2019-05-25T18:12:16.009Z,5.72
2019-05-25T18:16:20.298Z,5.62
2019-05-25T18:20:24.511Z,7.83
2019-05-25T18:24:28.685Z,8.38
2019-05-25T18:28:33.176Z,7.50
2019-05-25T18:32:37.555Z,9.95
2019-05-25T18:36:41.782Z,7.15
2019-05-25T18:40:45.922Z,9.25
2019-05-25T18:44:50.193Z,6.92
2019-05-25T18:48:54.335Z,5.15
2019-05-25T18:52:58.654Z,4.40
2019-05-25T18:57:06.685Z,9.68
2019-05-25T19:01:08.889Z,7.42
2019-05-25T19:05:13.138Z,6.72
2019-05-25T19:09:17.636Z,6.97
2019-05-25T19:13:21.914Z,8.95
2019-05-25T19:17:26.099Z,7.05
2019-05-25T19:21:30.274Z,5.22
2019-05-25T19:25:34.346Z,6.10
2019-05-25T19:29:38.473Z,7.35
2019-05-25T19:33:43.691Z,10.60
2019-05-25T19:37:47.910Z,13.35
2019-05-25T19:41:52.006Z,15.00
2019-05-25T19:45:56.134Z,13.48
2019-05-25T19:50:04.606Z,8.38
2019-05-25T19:54:06.363Z,10.32
2019-05-25T19:58:10.648Z,7.67
2019-05-25T20:02:14.810Z,7.08
2019-05-25T20:06:18.992Z,6.40
2019-05-25T20:10:23.520Z,7.17
2019-05-25T20:14:27.674Z,7.87
2019-05-25T20:18:31.814Z,12.13
2019-05-25T20:22:35.956Z,9.73
2019-05-25T20:26:41.082Z,11.03
2019-05-25T20:30:45.297Z,10.13
2019-05-25T20:34:49.479Z,10.00
2019-05-25T20:38:53.555Z,13.03
2019-05-25T20:42:57.814Z,13.20
2019-05-25T20:47:05.196Z,14.83
2019-05-25T20:51:09.305Z,12.13
2019-05-25T20:55:13.560Z,11.65
2019-05-25T20:59:17.862Z,13.55
2019-05-25T21:03:22.047Z,12.45
2019-05-25T21:07:28.661Z,11.00
2019-05-25T21:11:34.296Z,13.22
2019-05-25T21:15:38.488Z,9.90
2019-05-25T21:19:42.505Z,15.00
2019-05-25T21:23:46.675Z,10.55
2019-05-25T21:27:50.818Z,9.83
2019-05-25T21:31:54.983Z,13.22
2019-05-25T21:36:08.399Z,15.48
2019-05-25T21:40:05.486Z,12.90
2019-05-25T21:44:10.688Z,19.65
2019-05-25T21:48:15.874Z,36.55
2019-05-25T21:52:20.091Z,38.80
2019-05-25T21:56:24.258Z,33.48
2019-05-25T22:00:30.860Z,27.02
2019-05-25T22:04:36.416Z,33.92
2019-05-25T22:08:40.658Z,29.65
2019-05-25T22:12:44.814Z,25.10
2019-05-25T22:16:48.995Z,23.40
2019-05-25T22:20:53.033Z,24.85
2019-05-25T22:24:57.201Z,29.55
2019-05-25T22:29:01.283Z,30.60
2019-05-25T22:33:05.507Z,28.90
2019-05-25T22:37:09.626Z,25.72
2019-05-25T22:41:13.805Z,25.30
2019-05-25T22:45:18.081Z,45.52
2019-05-25T22:49:22.143Z,85.87
2019-05-25T22:53:26.330Z,103.00
2019-05-25T22:57:30.525Z,54.38
2019-05-25T23:01:34.713Z,22.10
2019-05-25T23:05:38.953Z,35.98
2019-05-25T23:09:43.053Z,27.23
2019-05-25T23:13:47.206Z,27.50
2019-05-25T23:17:51.384Z,16.67
2019-05-25T23:21:55.775Z,16.35
2019-05-25T23:25:59.930Z,14.35
2019-05-25T23:30:04.393Z,7.05
2019-05-25T23:34:08.543Z,10.13
2019-05-25T23:38:12.924Z,7.65
2019-05-25T23:42:16.979Z,9.50
2019-05-25T23:46:21.185Z,6.40
2019-05-25T23:50:25.323Z,6.28
2019-05-25T23:54:29.337Z,6.35
2019-05-25T23:58:33.700Z,5.65
